sensor_id;sensor_type;location;lat;lon;timestamp;temperature;humidity
14008;DHT22;61651;45.508;12.232;2023-04-03T00:02:31;15.80;99.90
14008;DHT22;61651;45.508;12.232;2023-04-03T00:05:33;15.80;99.90
14008;DHT22;61651;45.508;12.232;2023-04-03T00:08:37;15.90;99.90
14008;DHT22;61651;45.508;12.232;2023-04-03T00:11:39;15.90;99.90
14008;DHT22;61651;45.508;12.232;2023-04-03T00:14:41;16.00;99.90
14008;DHT22;61651;45.508;12.232;2023-04-03T00:17:43;15.90;99.90
14008;DHT22;61651;45.508;12.232;2023-04-03T00:20:45;15.80;99.90
14008;DHT22;61651;45.508;12.232;2023-04-03T00:23:48;15.80;99.90
14008;DHT22;61651;45.508;12.232;2023-04-03T00:26:50;15.80;99.90
14008;DHT22;61651;45.508;12.232;2023-04-03T00:29:52;15.80;99.90
14008;DHT22;61651;45.508;12.232;2023-04-03T00:32:54;15.60;99.90
14008;DHT22;61651;45.508;12.232;2023-04-03T00:35:56;15.50;99.90
14008;DHT22;61651;45.508;12.232;2023-04-03T00:39:00;15.50;99.90
14008;DHT22;61651;45.508;12.232;2023-04-03T00:42:02;15.50;99.90
14008;DHT22;61651;45.508;12.232;2023-04-03T00:45:32;15.50;99.90
14008;DHT22;61651;45.508;12.232;2023-04-03T00:48:37;15.50;99.90
14008;DHT22;61651;45.508;12.232;2023-04-03T00:51:41;15.50;99.90
14008;DHT22;61651;45.508;12.232;2023-04-03T00:54:46;15.40;99.90
14008;DHT22;61651;45.508;12.232;2023-04-03T00:57:49;15.40;99.90
14008;DHT22;61651;45.508;12.232;2023-04-03T01:00:55;15.40;99.90
14008;DHT22;61651;45.508;12.232;2023-04-03T01:04:00;15.40;99.90
14008;DHT22;61651;45.508;12.232;2023-04-03T01:07:05;15.40;99.90
14008;DHT22;61651;45.508;12.232;2023-04-03T01:10:11;15.40;99.90
14008;DHT22;61651;45.508;12.232;2023-04-03T01:13:20;15.20;99.90
14008;DHT22;61651;45.508;12.232;2023-04-03T01:16:22;15.30;99.90
14008;DHT22;61651;45.508;12.232;2023-04-03T01:19:24;15.40;99.90
14008;DHT22;61651;45.508;12.232;2023-04-03T01:22:30;15.30;99.90
14008;DHT22;61651;45.508;12.232;2023-04-03T01:25:37;15.30;99.90
14008;DHT22;61651;45.508;12.232;2023-04-03T01:28:39;15.20;99.90
14008;DHT22;61651;45.508;12.232;2023-04-03T01:31:50;15.20;99.90
14008;DHT22;61651;45.508;12.232;2023-04-03T01:34:52;15.30;99.90
14008;DHT22;61651;45.508;12.232;2023-04-03T01:37:54;15.20;99.90
14008;DHT22;61651;45.508;12.232;2023-04-03T01:40:56;15.20;99.90
14008;DHT22;61651;45.508;12.232;2023-04-03T01:43:58;15.20;99.90
14008;DHT22;61651;45.508;12.232;2023-04-03T01:47:01;15.30;99.90
14008;DHT22;61651;45.508;12.232;2023-04-03T01:50:04;15.30;99.90
14008;DHT22;61651;45.508;12.232;2023-04-03T01:53:06;15.30;99.90
14008;DHT22;61651;45.508;12.232;2023-04-03T01:56:08;15.30;99.90
14008;DHT22;61651;45.508;12.232;2023-04-03T01:59:10;15.30;99.90
14008;DHT22;61651;45.508;12.232;2023-04-03T02:02:13;15.30;99.90
14008;DHT22;61651;45.508;12.232;2023-04-03T02:05:16;15.30;99.90
14008;DHT22;61651;45.508;12.232;2023-04-03T02:08:18;15.20;99.90
14008;DHT22;61651;45.508;12.232;2023-04-03T02:11:20;15.30;99.90
14008;DHT22;61651;45.508;12.232;2023-04-03T02:14:22;15.20;99.90
14008;DHT22;61651;45.508;12.232;2023-04-03T02:17:26;15.20;99.90
14008;DHT22;61651;45.508;12.232;2023-04-03T02:20:28;15.20;99.90
14008;DHT22;61651;45.508;12.232;2023-04-03T02:23:30;15.30;99.90
14008;DHT22;61651;45.508;12.232;2023-04-03T02:26:32;15.30;99.90
14008;DHT22;61651;45.508;12.232;2023-04-03T02:29:34;15.30;99.90
14008;DHT22;61651;45.508;12.232;2023-04-03T02:32:37;15.20;99.90
14008;DHT22;61651;45.508;12.232;2023-04-03T02:35:39;15.20;99.90
14008;DHT22;61651;45.508;12.232;2023-04-03T02:38:41;15.20;99.90
14008;DHT22;61651;45.508;12.232;2023-04-03T02:41:43;15.10;99.90
14008;DHT22;61651;45.508;12.232;2023-04-03T02:44:45;15.10;99.90
14008;DHT22;61651;45.508;12.232;2023-04-03T02:47:48;15.10;99.90
14008;DHT22;61651;45.508;12.232;2023-04-03T02:50:51;15.00;99.90
14008;DHT22;61651;45.508;12.232;2023-04-03T02:53:53;15.00;99.90
14008;DHT22;61651;45.508;12.232;2023-04-03T02:56:55;14.90;99.90
14008;DHT22;61651;45.508;12.232;2023-04-03T02:59:57;14.90;99.90
14008;DHT22;61651;45.508;12.232;2023-04-03T03:03:00;14.80;99.90
14008;DHT22;61651;45.508;12.232;2023-04-03T03:06:03;14.80;99.90
14008;DHT22;61651;45.508;12.232;2023-04-03T03:09:06;14.80;99.90
14008;DHT22;61651;45.508;12.232;2023-04-03T03:12:08;14.70;99.90
14008;DHT22;61651;45.508;12.232;2023-04-03T03:15:10;14.60;99.90
14008;DHT22;61651;45.508;12.232;2023-04-03T03:18:14;14.60;99.90
14008;DHT22;61651;45.508;12.232;2023-04-03T03:21:16;14.50;99.90
14008;DHT22;61651;45.508;12.232;2023-04-03T03:24:18;14.50;99.90
14008;DHT22;61651;45.508;12.232;2023-04-03T03:27:20;14.40;99.90
14008;DHT22;61651;45.508;12.232;2023-04-03T03:30:22;14.40;99.90
14008;DHT22;61651;45.508;12.232;2023-04-03T03:33:25;14.40;99.90
14008;DHT22;61651;45.508;12.232;2023-04-03T03:36:27;14.40;99.90
14008;DHT22;61651;45.508;12.232;2023-04-03T03:39:29;14.40;99.90
14008;DHT22;61651;45.508;12.232;2023-04-03T03:42:31;14.40;99.90
14008;DHT22;61651;45.508;12.232;2023-04-03T03:45:33;14.40;99.90
14008;DHT22;61651;45.508;12.232;2023-04-03T03:48:36;14.40;99.90
14008;DHT22;61651;45.508;12.232;2023-04-03T03:51:38;14.40;99.90
14008;DHT22;61651;45.508;12.232;2023-04-03T03:54:41;14.30;99.90
14008;DHT22;61651;45.508;12.232;2023-04-03T03:57:42;14.30;99.90
14008;DHT22;61651;45.508;12.232;2023-04-03T04:00:45;14.30;99.90
14008;DHT22;61651;45.508;12.232;2023-04-03T04:03:48;14.20;99.90
14008;DHT22;61651;45.508;12.232;2023-04-03T04:06:50;14.20;99.90
14008;DHT22;61651;45.508;12.232;2023-04-03T04:09:52;14.20;99.90
14008;DHT22;61651;45.508;12.232;2023-04-03T04:12:54;14.10;99.90
14008;DHT22;61651;45.508;12.232;2023-04-03T04:15:56;14.10;99.90
14008;DHT22;61651;45.508;12.232;2023-04-03T04:18:59;14.10;99.90
14008;DHT22;61651;45.508;12.232;2023-04-03T04:22:01;14.00;99.90
14008;DHT22;61651;45.508;12.232;2023-04-03T04:25:04;14.00;99.90
14008;DHT22;61651;45.508;12.232;2023-04-03T04:28:06;14.00;99.90
14008;DHT22;61651;45.508;12.232;2023-04-03T04:31:08;14.00;99.90
14008;DHT22;61651;45.508;12.232;2023-04-03T04:34:12;13.90;99.90
14008;DHT22;61651;45.508;12.232;2023-04-03T04:37:14;13.90;99.90
14008;DHT22;61651;45.508;12.232;2023-04-03T04:40:16;13.90;99.90
14008;DHT22;61651;45.508;12.232;2023-04-03T04:43:18;13.90;99.90
14008;DHT22;61651;45.508;12.232;2023-04-03T04:46:20;13.90;99.90
14008;DHT22;61651;45.508;12.232;2023-04-03T04:49:23;13.80;99.90
14008;DHT22;61651;45.508;12.232;2023-04-03T04:52:25;13.80;99.90
14008;DHT22;61651;45.508;12.232;2023-04-03T04:55:27;13.80;99.90
14008;DHT22;61651;45.508;12.232;2023-04-03T04:58:29;13.80;99.90
14008;DHT22;61651;45.508;12.232;2023-04-03T05:01:31;13.80;99.90
14008;DHT22;61651;45.508;12.232;2023-04-03T05:04:34;13.80;99.90
14008;DHT22;61651;45.508;12.232;2023-04-03T05:07:36;13.80;99.90
14008;DHT22;61651;45.508;12.232;2023-04-03T05:10:38;13.80;99.90
14008;DHT22;61651;45.508;12.232;2023-04-03T05:13:42;13.80;99.90
14008;DHT22;61651;45.508;12.232;2023-04-03T05:16:43;13.90;99.90
14008;DHT22;61651;45.508;12.232;2023-04-03T05:19:47;13.90;99.90
14008;DHT22;61651;45.508;12.232;2023-04-03T05:22:49;13.80;99.90
14008;DHT22;61651;45.508;12.232;2023-04-03T05:25:51;13.80;99.90
14008;DHT22;61651;45.508;12.232;2023-04-03T05:28:53;13.90;99.90
14008;DHT22;61651;45.508;12.232;2023-04-03T05:31:55;13.90;99.90
14008;DHT22;61651;45.508;12.232;2023-04-03T05:34:59;13.90;99.90
14008;DHT22;61651;45.508;12.232;2023-04-03T05:38:01;13.90;99.90
14008;DHT22;61651;45.508;12.232;2023-04-03T05:41:03;13.90;99.90
14008;DHT22;61651;45.508;12.232;2023-04-03T05:44:05;14.00;99.90
14008;DHT22;61651;45.508;12.232;2023-04-03T05:47:07;14.00;99.90
14008;DHT22;61651;45.508;12.232;2023-04-03T05:50:10;14.10;99.90
14008;DHT22;61651;45.508;12.232;2023-04-03T05:53:15;14.20;99.90
14008;DHT22;61651;45.508;12.232;2023-04-03T05:56:19;14.20;99.90
14008;DHT22;61651;45.508;12.232;2023-04-03T05:59:22;14.30;99.90
14008;DHT22;61651;45.508;12.232;2023-04-03T06:02:24;14.40;99.90
14008;DHT22;61651;45.508;12.232;2023-04-03T06:05:28;14.40;99.90
14008;DHT22;61651;45.508;12.232;2023-04-03T06:08:30;14.50;99.90
14008;DHT22;61651;45.508;12.232;2023-04-03T06:11:31;14.60;99.90
14008;DHT22;61651;45.508;12.232;2023-04-03T06:14:34;14.60;99.90
14008;DHT22;61651;45.508;12.232;2023-04-03T06:17:36;14.70;99.90
14008;DHT22;61651;45.508;12.232;2023-04-03T06:20:40;14.80;99.90
14008;DHT22;61651;45.508;12.232;2023-04-03T06:23:42;14.80;99.90
14008;DHT22;61651;45.508;12.232;2023-04-03T06:26:44;14.90;99.90
14008;DHT22;61651;45.508;12.232;2023-04-03T06:29:46;15.00;99.90
14008;DHT22;61651;45.508;12.232;2023-04-03T06:32:49;14.90;99.90
14008;DHT22;61651;45.508;12.232;2023-04-03T06:35:57;15.00;99.90
14008;DHT22;61651;45.508;12.232;2023-04-03T06:39:00;15.10;99.90
14008;DHT22;61651;45.508;12.232;2023-04-03T06:42:03;15.20;99.90
14008;DHT22;61651;45.508;12.232;2023-04-03T06:45:06;15.20;99.90
14008;DHT22;61651;45.508;12.232;2023-04-03T06:48:09;15.20;99.90
14008;DHT22;61651;45.508;12.232;2023-04-03T06:51:17;15.20;99.90
14008;DHT22;61651;45.508;12.232;2023-04-03T06:54:20;15.30;99.90
14008;DHT22;61651;45.508;12.232;2023-04-03T06:57:22;15.40;99.90
14008;DHT22;61651;45.508;12.232;2023-04-03T07:00:24;15.50;99.90
14008;DHT22;61651;45.508;12.232;2023-04-03T07:03:27;15.50;99.90
14008;DHT22;61651;45.508;12.232;2023-04-03T07:06:30;15.50;99.90
14008;DHT22;61651;45.508;12.232;2023-04-03T07:09:34;15.50;99.90
14008;DHT22;61651;45.508;12.232;2023-04-03T07:12:36;15.40;99.90
14008;DHT22;61651;45.508;12.232;2023-04-03T07:15:39;15.30;99.90
14008;DHT22;61651;45.508;12.232;2023-04-03T07:18:41;15.30;99.90
14008;DHT22;61651;45.508;12.232;2023-04-03T07:21:44;15.30;99.90
14008;DHT22;61651;45.508;12.232;2023-04-03T07:24:46;15.30;99.90
14008;DHT22;61651;45.508;12.232;2023-04-03T07:27:48;15.30;99.90
14008;DHT22;61651;45.508;12.232;2023-04-03T07:30:53;15.30;99.90
14008;DHT22;61651;45.508;12.232;2023-04-03T07:33:55;15.30;99.90
14008;DHT22;61651;45.508;12.232;2023-04-03T07:36:59;15.40;99.90
14008;DHT22;61651;45.508;12.232;2023-04-03T07:40:01;15.40;99.90
14008;DHT22;61651;45.508;12.232;2023-04-03T07:43:04;15.40;99.90
14008;DHT22;61651;45.508;12.232;2023-04-03T07:46:06;15.40;99.90
14008;DHT22;61651;45.508;12.232;2023-04-03T07:49:08;15.40;99.90
14008;DHT22;61651;45.508;12.232;2023-04-03T07:52:12;15.30;99.90
14008;DHT22;61651;45.508;12.232;2023-04-03T07:55:15;15.40;99.90
14008;DHT22;61651;45.508;12.232;2023-04-03T07:58:18;15.50;99.90
14008;DHT22;61651;45.508;12.232;2023-04-03T08:01:20;15.50;99.90
14008;DHT22;61651;45.508;12.232;2023-04-03T08:04:22;15.50;99.90
14008;DHT22;61651;45.508;12.232;2023-04-03T08:07:26;15.60;99.90
14008;DHT22;61651;45.508;12.232;2023-04-03T08:10:29;15.60;99.90
14008;DHT22;61651;45.508;12.232;2023-04-03T08:13:32;15.60;99.90
14008;DHT22;61651;45.508;12.232;2023-04-03T08:16:35;15.70;99.90
14008;DHT22;61651;45.508;12.232;2023-04-03T08:19:37;15.70;99.90
14008;DHT22;61651;45.508;12.232;2023-04-03T08:22:41;15.80;99.90
14008;DHT22;61651;45.508;12.232;2023-04-03T08:25:43;15.90;99.90
14008;DHT22;61651;45.508;12.232;2023-04-03T08:28:45;16.00;99.90
14008;DHT22;61651;45.508;12.232;2023-04-03T08:31:47;16.10;99.90
14008;DHT22;61651;45.508;12.232;2023-04-03T08:34:50;16.20;99.90
14008;DHT22;61651;45.508;12.232;2023-04-03T08:37:53;16.20;99.90
14008;DHT22;61651;45.508;12.232;2023-04-03T08:41:09;16.30;99.50
14008;DHT22;61651;45.508;12.232;2023-04-03T08:44:24;16.30;98.90
14008;DHT22;61651;45.508;12.232;2023-04-03T08:47:30;16.40;99.60
14008;DHT22;61651;45.508;12.232;2023-04-03T08:50:40;16.40;99.40
14008;DHT22;61651;45.508;12.232;2023-04-03T08:53:50;16.50;98.90
14008;DHT22;61651;45.508;12.232;2023-04-03T08:56:56;16.50;98.90
14008;DHT22;61651;45.508;12.232;2023-04-03T09:00:03;16.60;97.90
14008;DHT22;61651;45.508;12.232;2023-04-03T09:03:10;16.70;98.10
14008;DHT22;61651;45.508;12.232;2023-04-03T09:06:15;16.70;98.20
14008;DHT22;61651;45.508;12.232;2023-04-03T09:09:31;16.80;98.40
14008;DHT22;61651;45.508;12.232;2023-04-03T09:12:37;16.90;98.50
14008;DHT22;61651;45.508;12.232;2023-04-03T09:15:41;17.00;97.70
14008;DHT22;61651;45.508;12.232;2023-04-03T09:18:45;17.00;97.50
14008;DHT22;61651;45.508;12.232;2023-04-03T09:21:55;17.10;97.40
14008;DHT22;61651;45.508;12.232;2023-04-03T09:25:02;17.20;97.50
14008;DHT22;61651;45.508;12.232;2023-04-03T09:28:08;17.20;97.70
14008;DHT22;61651;45.508;12.232;2023-04-03T09:31:18;17.30;96.90
14008;DHT22;61651;45.508;12.232;2023-04-03T09:34:23;17.40;96.50
14008;DHT22;61651;45.508;12.232;2023-04-03T09:37:36;17.40;96.50
14008;DHT22;61651;45.508;12.232;2023-04-03T09:40:41;17.40;96.50
14008;DHT22;61651;45.508;12.232;2023-04-03T09:43:52;17.40;96.20
14008;DHT22;61651;45.508;12.232;2023-04-03T09:46:56;17.50;96.20
14008;DHT22;61651;45.508;12.232;2023-04-03T09:50:18;17.40;95.80
14008;DHT22;61651;45.508;12.232;2023-04-03T09:53:28;17.40;95.60
14008;DHT22;61651;45.508;12.232;2023-04-03T09:56:31;17.50;95.80
14008;DHT22;61651;45.508;12.232;2023-04-03T09:59:35;17.50;96.20
14008;DHT22;61651;45.508;12.232;2023-04-03T10:02:39;17.60;95.90
14008;DHT22;61651;45.508;12.232;2023-04-03T10:05:42;17.60;95.70
14008;DHT22;61651;45.508;12.232;2023-04-03T10:08:58;17.60;95.70
14008;DHT22;61651;45.508;12.232;2023-04-03T10:12:03;17.70;95.80
14008;DHT22;61651;45.508;12.232;2023-04-03T10:15:11;17.70;95.60
14008;DHT22;61651;45.508;12.232;2023-04-03T10:18:27;17.80;95.40
14008;DHT22;61651;45.508;12.232;2023-04-03T10:21:37;17.80;95.40
14008;DHT22;61651;45.508;12.232;2023-04-03T10:24:51;17.90;95.50
14008;DHT22;61651;45.508;12.232;2023-04-03T10:27:58;17.90;95.30
14008;DHT22;61651;45.508;12.232;2023-04-03T10:31:06;17.90;95.60
14008;DHT22;61651;45.508;12.232;2023-04-03T10:34:18;18.00;95.30
14008;DHT22;61651;45.508;12.232;2023-04-03T10:37:25;18.10;95.20
14008;DHT22;61651;45.508;12.232;2023-04-03T10:40:32;18.10;94.80
14008;DHT22;61651;45.508;12.232;2023-04-03T10:43:42;18.00;94.20
14008;DHT22;61651;45.508;12.232;2023-04-03T10:46:48;18.00;94.90
14008;DHT22;61651;45.508;12.232;2023-04-03T10:49:56;18.10;94.70
14008;DHT22;61651;45.508;12.232;2023-04-03T10:53:05;18.10;94.00
14008;DHT22;61651;45.508;12.232;2023-04-03T10:56:14;18.20;94.30
14008;DHT22;61651;45.508;12.232;2023-04-03T10:59:25;18.30;94.30
14008;DHT22;61651;45.508;12.232;2023-04-03T11:02:30;18.50;94.10
14008;DHT22;61651;45.508;12.232;2023-04-03T11:05:39;18.60;93.70
14008;DHT22;61651;45.508;12.232;2023-04-03T11:08:44;18.70;93.90
14008;DHT22;61651;45.508;12.232;2023-04-03T11:11:48;19.00;93.20
14008;DHT22;61651;45.508;12.232;2023-04-03T11:14:55;19.10;92.00
14008;DHT22;61651;45.508;12.232;2023-04-03T11:18:00;19.20;91.70
14008;DHT22;61651;45.508;12.232;2023-04-03T11:21:07;19.20;92.20
14008;DHT22;61651;45.508;12.232;2023-04-03T11:24:17;19.20;92.10
14008;DHT22;61651;45.508;12.232;2023-04-03T11:27:21;19.30;91.50
14008;DHT22;61651;45.508;12.232;2023-04-03T11:30:30;19.30;91.90
14008;DHT22;61651;45.508;12.232;2023-04-03T11:33:42;19.50;92.20
14008;DHT22;61651;45.508;12.232;2023-04-03T11:36:48;19.50;91.00
14008;DHT22;61651;45.508;12.232;2023-04-03T11:39:54;19.50;91.20
14008;DHT22;61651;45.508;12.232;2023-04-03T11:43:05;19.40;90.10
14008;DHT22;61651;45.508;12.232;2023-04-03T11:46:10;19.40;90.40
14008;DHT22;61651;45.508;12.232;2023-04-03T11:49:56;19.50;90.40
14008;DHT22;61651;45.508;12.232;2023-04-03T11:53:25;19.60;90.80
14008;DHT22;61651;45.508;12.232;2023-04-03T11:56:31;19.70;90.80
14008;DHT22;61651;45.508;12.232;2023-04-03T11:59:37;19.80;89.70
14008;DHT22;61651;45.508;12.232;2023-04-03T12:02:40;19.90;90.20
14008;DHT22;61651;45.508;12.232;2023-04-03T12:05:42;19.90;89.00
14008;DHT22;61651;45.508;12.232;2023-04-03T12:08:46;20.00;90.10
14008;DHT22;61651;45.508;12.232;2023-04-03T12:11:49;20.00;86.90
14008;DHT22;61651;45.508;12.232;2023-04-03T12:14:51;20.10;88.40
14008;DHT22;61651;45.508;12.232;2023-04-03T12:17:55;20.20;89.10
14008;DHT22;61651;45.508;12.232;2023-04-03T12:20:58;20.30;88.30
14008;DHT22;61651;45.508;12.232;2023-04-03T12:24:15;20.50;89.10
14008;DHT22;61651;45.508;12.232;2023-04-03T12:27:27;20.60;90.20
14008;DHT22;61651;45.508;12.232;2023-04-03T12:30:30;20.70;87.10
14008;DHT22;61651;45.508;12.232;2023-04-03T12:33:43;20.80;87.00
14008;DHT22;61651;45.508;12.232;2023-04-03T12:36:58;20.90;87.70
14008;DHT22;61651;45.508;12.232;2023-04-03T12:40:09;20.90;86.40
14008;DHT22;61651;45.508;12.232;2023-04-03T12:43:29;21.00;84.20
14008;DHT22;61651;45.508;12.232;2023-04-03T12:46:37;21.20;84.00
14008;DHT22;61651;45.508;12.232;2023-04-03T12:49:42;21.40;83.20
14008;DHT22;61651;45.508;12.232;2023-04-03T12:52:50;21.30;82.60
14008;DHT22;61651;45.508;12.232;2023-04-03T12:55:54;21.30;84.40
14008;DHT22;61651;45.508;12.232;2023-04-03T12:59:13;21.50;84.30
14008;DHT22;61651;45.508;12.232;2023-04-03T13:02:23;21.60;82.90
14008;DHT22;61651;45.508;12.232;2023-04-03T13:05:27;21.60;82.30
14008;DHT22;61651;45.508;12.232;2023-04-03T13:08:30;21.70;81.20
14008;DHT22;61651;45.508;12.232;2023-04-03T13:11:35;21.70;81.60
14008;DHT22;61651;45.508;12.232;2023-04-03T13:14:38;21.90;81.30
14008;DHT22;61651;45.508;12.232;2023-04-03T13:17:42;22.00;81.80
14008;DHT22;61651;45.508;12.232;2023-04-03T13:20:48;22.20;82.40
14008;DHT22;61651;45.508;12.232;2023-04-03T13:23:53;22.40;80.00
14008;DHT22;61651;45.508;12.232;2023-04-03T13:26:56;22.50;79.20
14008;DHT22;61651;45.508;12.232;2023-04-03T13:30:00;22.70;79.30
14008;DHT22;61651;45.508;12.232;2023-04-03T13:33:04;22.80;79.40
14008;DHT22;61651;45.508;12.232;2023-04-03T13:36:17;23.00;79.70
14008;DHT22;61651;45.508;12.232;2023-04-03T13:39:25;23.30;76.90
14008;DHT22;61651;45.508;12.232;2023-04-03T13:42:29;23.50;75.40
14008;DHT22;61651;45.508;12.232;2023-04-03T13:45:33;23.60;75.20
14008;DHT22;61651;45.508;12.232;2023-04-03T13:48:37;23.60;75.30
14008;DHT22;61651;45.508;12.232;2023-04-03T13:51:41;23.90;74.00
14008;DHT22;61651;45.508;12.232;2023-04-03T13:54:46;24.10;74.10
14008;DHT22;61651;45.508;12.232;2023-04-03T13:57:51;24.50;73.60
14008;DHT22;61651;45.508;12.232;2023-04-03T14:00:55;24.80;70.70
14008;DHT22;61651;45.508;12.232;2023-04-03T14:03:59;25.00;70.30
14008;DHT22;61651;45.508;12.232;2023-04-03T14:07:03;25.20;70.40
14008;DHT22;61651;45.508;12.232;2023-04-03T14:10:06;25.40;68.90
14008;DHT22;61651;45.508;12.232;2023-04-03T14:13:11;25.70;67.60
14008;DHT22;61651;45.508;12.232;2023-04-03T14:16:14;25.90;67.30
14008;DHT22;61651;45.508;12.232;2023-04-03T14:19:20;26.10;66.80
14008;DHT22;61651;45.508;12.232;2023-04-03T14:22:26;26.20;66.20
14008;DHT22;61651;45.508;12.232;2023-04-03T14:25:29;26.40;65.40
14008;DHT22;61651;45.508;12.232;2023-04-03T14:28:31;26.60;65.50
14008;DHT22;61651;45.508;12.232;2023-04-03T14:31:34;26.70;65.40
14008;DHT22;61651;45.508;12.232;2023-04-03T14:34:36;26.70;63.10
14008;DHT22;61651;45.508;12.232;2023-04-03T14:37:40;26.70;63.30
14008;DHT22;61651;45.508;12.232;2023-04-03T14:40:42;26.80;64.40
14008;DHT22;61651;45.508;12.232;2023-04-03T14:43:45;26.90;65.10
14008;DHT22;61651;45.508;12.232;2023-04-03T14:46:47;27.00;62.40
14008;DHT22;61651;45.508;12.232;2023-04-03T14:49:49;27.10;62.20
14008;DHT22;61651;45.508;12.232;2023-04-03T14:52:54;27.30;62.40
14008;DHT22;61651;45.508;12.232;2023-04-03T14:55:57;27.30;61.40
14008;DHT22;61651;45.508;12.232;2023-04-03T14:59:00;27.40;61.70
14008;DHT22;61651;45.508;12.232;2023-04-03T15:02:02;27.40;61.50
14008;DHT22;61651;45.508;12.232;2023-04-03T15:05:09;27.40;61.40
14008;DHT22;61651;45.508;12.232;2023-04-03T15:08:21;27.50;60.60
14008;DHT22;61651;45.508;12.232;2023-04-03T15:11:24;27.50;59.70
14008;DHT22;61651;45.508;12.232;2023-04-03T15:14:27;27.40;60.30
14008;DHT22;61651;45.508;12.232;2023-04-03T15:17:29;27.30;59.50
14008;DHT22;61651;45.508;12.232;2023-04-03T15:20:31;27.20;58.90
14008;DHT22;61651;45.508;12.232;2023-04-03T15:23:35;27.10;58.30
14008;DHT22;61651;45.508;12.232;2023-04-03T15:26:37;27.00;58.60
14008;DHT22;61651;45.508;12.232;2023-04-03T15:29:41;27.20;58.30
14008;DHT22;61651;45.508;12.232;2023-04-03T15:32:43;27.10;57.40
14008;DHT22;61651;45.508;12.232;2023-04-03T15:35:45;27.00;58.80
14008;DHT22;61651;45.508;12.232;2023-04-03T15:38:49;26.80;58.10
14008;DHT22;61651;45.508;12.232;2023-04-03T15:41:51;26.60;57.70
14008;DHT22;61651;45.508;12.232;2023-04-03T15:44:54;26.40;58.10
14008;DHT22;61651;45.508;12.232;2023-04-03T15:47:56;26.30;58.30
14008;DHT22;61651;45.508;12.232;2023-04-03T15:50:59;26.10;57.30
14008;DHT22;61651;45.508;12.232;2023-04-03T15:54:03;25.80;57.30
14008;DHT22;61651;45.508;12.232;2023-04-03T15:57:05;25.50;57.80
14008;DHT22;61651;45.508;12.232;2023-04-03T16:00:08;25.30;58.10
14008;DHT22;61651;45.508;12.232;2023-04-03T16:03:12;25.00;59.00
14008;DHT22;61651;45.508;12.232;2023-04-03T16:06:16;24.60;59.80
14008;DHT22;61651;45.508;12.232;2023-04-03T16:09:20;24.30;60.60
14008;DHT22;61651;45.508;12.232;2023-04-03T16:12:22;23.80;60.60
14008;DHT22;61651;45.508;12.232;2023-04-03T16:15:25;23.40;60.30
14008;DHT22;61651;45.508;12.232;2023-04-03T16:18:27;23.00;62.40
14008;DHT22;61651;45.508;12.232;2023-04-03T16:21:31;22.50;62.00
14008;DHT22;61651;45.508;12.232;2023-04-03T16:24:35;22.20;64.30
14008;DHT22;61651;45.508;12.232;2023-04-03T16:27:38;21.90;63.70
14008;DHT22;61651;45.508;12.232;2023-04-03T16:30:40;21.60;64.50
14008;DHT22;61651;45.508;12.232;2023-04-03T16:33:42;21.30;65.10
14008;DHT22;61651;45.508;12.232;2023-04-03T16:36:45;21.10;66.00
14008;DHT22;61651;45.508;12.232;2023-04-03T16:39:48;21.00;66.40
14008;DHT22;61651;45.508;12.232;2023-04-03T16:42:50;20.70;66.30
14008;DHT22;61651;45.508;12.232;2023-04-03T16:45:52;20.50;66.80
14008;DHT22;61651;45.508;12.232;2023-04-03T16:48:54;20.30;66.50
14008;DHT22;61651;45.508;12.232;2023-04-03T16:51:56;20.10;65.90
14008;DHT22;61651;45.508;12.232;2023-04-03T16:55:00;19.90;66.40
14008;DHT22;61651;45.508;12.232;2023-04-03T16:58:02;19.80;65.90
14008;DHT22;61651;45.508;12.232;2023-04-03T17:01:11;19.70;67.30
14008;DHT22;61651;45.508;12.232;2023-04-03T17:04:13;19.50;68.00
14008;DHT22;61651;45.508;12.232;2023-04-03T17:07:15;19.40;66.90
14008;DHT22;61651;45.508;12.232;2023-04-03T17:10:19;19.30;68.20
14008;DHT22;61651;45.508;12.232;2023-04-03T17:13:21;19.20;67.90
14008;DHT22;61651;45.508;12.232;2023-04-03T17:16:23;19.20;69.30
14008;DHT22;61651;45.508;12.232;2023-04-03T17:19:27;19.10;70.00
14008;DHT22;61651;45.508;12.232;2023-04-03T17:22:30;18.90;69.60
14008;DHT22;61651;45.508;12.232;2023-04-03T17:25:34;18.80;71.00
14008;DHT22;61651;45.508;12.232;2023-04-03T17:28:36;18.70;70.70
14008;DHT22;61651;45.508;12.232;2023-04-03T17:31:47;18.60;70.70
14008;DHT22;61651;45.508;12.232;2023-04-03T17:34:49;18.50;70.30
14008;DHT22;61651;45.508;12.232;2023-04-03T17:37:51;18.30;70.80
14008;DHT22;61651;45.508;12.232;2023-04-03T17:40:56;18.30;71.50
14008;DHT22;61651;45.508;12.232;2023-04-03T17:43:59;18.20;72.40
14008;DHT22;61651;45.508;12.232;2023-04-03T17:47:01;18.10;72.40
14008;DHT22;61651;45.508;12.232;2023-04-03T17:50:04;18.00;72.90
14008;DHT22;61651;45.508;12.232;2023-04-03T17:53:06;17.90;73.60
14008;DHT22;61651;45.508;12.232;2023-04-03T17:56:12;17.80;74.00
14008;DHT22;61651;45.508;12.232;2023-04-03T17:59:15;17.80;74.30
14008;DHT22;61651;45.508;12.232;2023-04-03T18:02:17;17.80;74.90
14008;DHT22;61651;45.508;12.232;2023-04-03T18:05:19;17.70;74.40
14008;DHT22;61651;45.508;12.232;2023-04-03T18:08:20;17.60;74.50
14008;DHT22;61651;45.508;12.232;2023-04-03T18:11:26;17.50;73.80
14008;DHT22;61651;45.508;12.232;2023-04-03T18:14:28;17.40;74.00
14008;DHT22;61651;45.508;12.232;2023-04-03T18:17:30;17.30;73.40
14008;DHT22;61651;45.508;12.232;2023-04-03T18:20:32;17.30;73.40
14008;DHT22;61651;45.508;12.232;2023-04-03T18:23:35;17.20;74.10
14008;DHT22;61651;45.508;12.232;2023-04-03T18:26:41;17.20;74.90
14008;DHT22;61651;45.508;12.232;2023-04-03T18:29:49;17.10;75.10
14008;DHT22;61651;45.508;12.232;2023-04-03T18:32:53;17.10;75.30
14008;DHT22;61651;45.508;12.232;2023-04-03T18:35:55;17.00;76.70
14008;DHT22;61651;45.508;12.232;2023-04-03T18:38:56;16.90;76.80
14008;DHT22;61651;45.508;12.232;2023-04-03T18:42:04;16.90;78.70
14008;DHT22;61651;45.508;12.232;2023-04-03T18:45:10;16.80;77.20
14008;DHT22;61651;45.508;12.232;2023-04-03T18:48:12;16.80;77.90
14008;DHT22;61651;45.508;12.232;2023-04-03T18:51:15;16.80;76.80
14008;DHT22;61651;45.508;12.232;2023-04-03T18:54:17;16.60;76.60
14008;DHT22;61651;45.508;12.232;2023-04-03T18:57:21;16.50;77.40
14008;DHT22;61651;45.508;12.232;2023-04-03T19:00:24;16.50;78.60
14008;DHT22;61651;45.508;12.232;2023-04-03T19:03:26;16.50;79.60
14008;DHT22;61651;45.508;12.232;2023-04-03T19:06:29;16.40;78.50